Time;durP1;ratioP1;P1;durP2;ratioP2;P2;SDS_P1;SDS_P2;PMS_P1;PMS_P2;Temp;Humidity;BMP_temperature;BMP_pressure;BME280_temperature;BME280_humidity;BME280_pressure;Samples;Min_cycle;Max_cycle;Signal;HPM_P1;HPM_P2
2022/10/15 00:01:13;;;;;;;4.05;1.15;;;22.20;60.40;;;;;;5073077;28;20834;-83
2022/10/15 00:03:41;;;;;;;3.88;0.90;;;22.50;60.00;;;;;;5072838;28;20377;-83
2022/10/15 00:06:11;;;;;;;5.25;1.00;;;22.70;58.30;;;;;;5072660;28;20378;-83
2022/10/15 00:08:39;;;;;;;2.88;0.90;;;23.00;57.90;;;;;;5072557;28;20409;-83
2022/10/15 00:11:09;;;;;;;3.10;1.05;;;23.30;57.40;;;;;;5072446;28;20370;-83
2022/10/15 00:13:37;;;;;;;2.05;0.93;;;23.40;55.90;;;;;;5072838;28;20479;-84
2022/10/15 00:16:06;;;;;;;5.72;3.10;;;23.20;54.40;;;;;;5054273;28;20381;-83
2022/10/15 00:18:33;;;;;;;2.80;1.00;;;22.80;55.30;;;;;;5072795;28;20382;-83
2022/10/15 00:21:00;;;;;;;2.83;1.20;;;22.30;55.70;;;;;;5078698;28;20394;-84
2022/10/15 00:23:27;;;;;;;2.20;0.90;;;22.00;58.70;;;;;;5079690;28;20472;-84
2022/10/15 00:26:02;;;;;;;2.63;0.70;;;22.00;57.10;;;;;;5079581;28;20496;-83
2022/10/15 00:28:29;;;;;;;2.88;1.08;;;22.10;57.20;;;;;;5083394;28;20936;-83
2022/10/15 00:31:04;;;;;;;4.32;1.10;;;21.80;57.80;;;;;;5083975;28;20378;-83
2022/10/15 00:33:32;;;;;;;3.78;1.10;;;21.80;59.00;;;;;;5083604;28;20392;-83
2022/10/15 00:36:06;;;;;;;4.93;1.10;;;22.00;58.30;;;;;;5080933;28;20373;-83
2022/10/15 00:38:34;;;;;;;1.75;0.90;;;22.20;53.20;;;;;;5079617;28;20903;-83
2022/10/15 00:41:03;;;;;;;4.20;1.00;;;22.20;54.50;;;;;;5079839;28;20853;-83
2022/10/15 00:43:39;;;;;;;3.55;0.90;;;22.50;55.50;;;;;;5080000;28;20846;-83
2022/10/15 00:46:14;;;;;;;2.58;0.90;;;22.90;54.40;;;;;;5080241;28;20373;-83
2022/10/15 00:48:41;;;;;;;2.63;0.80;;;23.30;52.40;;;;;;5079683;28;20389;-84
2022/10/15 00:51:09;;;;;;;2.92;0.80;;;23.40;51.50;;;;;;5079272;28;20378;-83
2022/10/15 00:53:36;;;;;;;2.30;0.95;;;23.20;52.20;;;;;;5079105;28;20745;-84
2022/10/15 00:56:03;;;;;;;3.17;1.00;;;22.80;52.00;;;;;;5081104;28;20370;-86
2022/10/15 00:58:32;;;;;;;2.88;0.90;;;22.30;53.70;;;;;;5091572;28;20366;-78
2022/10/15 01:00:59;;;;;;;2.33;1.02;;;22.00;55.20;;;;;;5094017;28;20778;-86
2022/10/15 01:03:26;;;;;;;5.07;1.40;;;21.80;54.00;;;;;;5095462;28;20370;-87
2022/10/15 01:05:54;;;;;;;3.17;1.13;;;21.90;55.90;;;;;;5074730;28;20370;-83
2022/10/15 01:08:21;;;;;;;5.43;1.93;;;21.70;54.40;;;;;;5089318;28;20393;-84
2022/10/15 01:11:09;;;;;;;16.97;2.77;;;21.80;54.10;;;;;;5095099;28;20378;-86
2022/10/15 01:13:43;;;;;;;4.73;1.10;;;22.10;55.20;;;;;;5098638;28;20382;-83
2022/10/15 01:16:20;;;;;;;13.43;2.50;;;22.60;54.70;;;;;;5095581;28;20366;-83
2022/10/15 01:19:30;;;;;;;3.63;0.98;;;23.30;52.70;;;;;;5087801;28;20430;-81
2022/10/15 01:22:03;;;;;;;5.47;1.20;;;24.00;51.40;;;;;;5039437;28;20466;-82
2022/10/15 01:24:53;;;;;;;8.90;1.70;;;23.90;51.30;;;;;;5021659;28;20411;-84
2022/10/15 01:28:13;;;;;;;6.93;1.00;;;24.40;51.50;;;;;;5027456;28;20383;-84
2022/10/15 01:30:44;;;;;;;16.27;2.20;;;25.10;49.50;;;;;;4958698;28;20395;-84
2022/10/15 01:33:25;;;;;;;6.53;1.17;;;25.10;49.90;;;;;;4957227;29;20412;-83
2022/10/15 01:36:18;;;;;;;19.30;2.17;;;25.30;48.00;;;;;;4957142;29;20435;-84
2022/10/15 01:39:23;;;;;;;6.30;1.20;;;25.60;48.30;;;;;;4963760;29;20448;-83
2022/10/15 01:41:55;;;;;;;3.97;1.33;;;25.90;47.60;;;;;;4968063;29;20388;-84
2022/10/15 01:44:38;;;;;;;3.92;0.90;;;26.70;46.50;;;;;;4958226;29;20376;-83
2022/10/15 01:47:45;;;;;;;2.53;1.00;;;26.40;46.60;;;;;;4956888;29;20380;-84
2022/10/15 01:50:15;;;;;;;1.60;0.90;;;26.70;45.50;;;;;;4918318;29;20422;-85
2022/10/15 01:52:44;;;;;;;5.57;1.15;;;27.70;44.50;;;;;;4917998;29;20553;-86
2022/10/15 01:55:14;;;;;;;4.53;1.00;;;28.50;42.60;;;;;;4917315;29;20396;-84
2022/10/15 01:57:44;;;;;;;4.13;1.30;;;28.80;41.30;;;;;;4917642;29;20394;-82
2022/10/15 02:00:12;;;;;;;3.80;1.20;;;28.90;42.60;;;;;;4935940;29;20398;-85
2022/10/15 02:02:39;;;;;;;3.72;1.00;;;28.70;43.10;;;;;;4936206;29;20398;-84
2022/10/15 02:05:11;;;;;;;3.65;1.10;;;28.50;42.00;;;;;;4984390;28;20385;-89
2022/10/15 02:07:54;;;;;;;2.75;1.00;;;28.80;42.10;;;;;;4994373;28;20472;-86
2022/10/15 02:10:24;;;;;;;3.90;1.20;;;29.40;41.00;;;;;;4994018;28;20493;-85
2022/10/15 02:13:09;;;;;;;3.40;1.00;;;29.90;40.50;;;;;;4995754;28;20403;-88
2022/10/15 02:16:11;;;;;;;6.35;1.27;;;29.40;41.40;;;;;;5013607;28;20383;-85
2022/10/15 02:18:50;;;;;;;5.85;1.15;;;29.10;41.50;;;;;;4996894;28;20375;-87
2022/10/15 02:21:36;;;;;;;2.70;1.00;;;28.90;41.80;;;;;;5016064;28;20800;-85
2022/10/15 02:24:11;;;;;;;3.55;1.17;;;29.00;41.60;;;;;;5014518;28;20813;-88
2022/10/15 02:26:40;;;;;;;3.47;1.10;;;28.50;41.50;;;;;;5030043;28;20404;-85
2022/10/15 02:29:16;;;;;;;3.72;1.10;;;28.70;41.60;;;;;;5080651;28;20381;-90
2022/10/15 02:31:45;;;;;;;4.13;1.05;;;29.00;40.90;;;;;;5077279;28;20850;-86
2022/10/15 02:34:17;;;;;;;3.30;1.00;;;29.40;41.00;;;;;;5076623;28;20836;-83
2022/10/15 02:36:46;;;;;;;8.15;1.30;;;29.50;40.20;;;;;;5075494;28;20433;-83
2022/10/15 02:39:17;;;;;;;3.30;1.10;;;29.20;42.50;;;;;;5091751;28;20792;-84
2022/10/15 02:41:46;;;;;;;3.13;1.38;;;29.20;40.30;;;;;;5075794;28;20363;-84
2022/10/15 02:44:13;;;;;;;2.33;1.10;;;28.30;41.60;;;;;;5079649;28;20374;-85
2022/10/15 02:46:40;;;;;;;3.08;1.00;;;28.20;41.80;;;;;;5075410;28;20374;-91
2022/10/15 02:49:07;;;;;;;2.78;1.20;;;28.90;41.50;;;;;;5075466;28;20712;-84
2022/10/15 02:51:36;;;;;;;3.78;1.13;;;29.30;42.10;;;;;;5074472;28;20374;-84
2022/10/15 02:54:04;;;;;;;3.53;1.20;;;30.10;40.20;;;;;;5074566;28;20401;-87
2022/10/15 02:56:31;;;;;;;3.47;1.33;;;31.20;39.50;;;;;;5074550;28;20366;-84
2022/10/15 02:58:58;;;;;;;3.80;1.33;;;32.10;39.40;;;;;;5075077;28;20387;-84
2022/10/15 03:01:27;;;;;;;5.97;1.40;;;32.40;39.00;;;;;;5074258;28;20731;-86
2022/10/15 03:03:54;;;;;;;3.20;1.20;;;32.60;38.80;;;;;;5074064;28;20378;-85
2022/10/15 03:06:21;;;;;;;5.72;1.38;;;33.10;37.00;;;;;;5074396;28;20378;-87
2022/10/15 03:08:48;;;;;;;3.78;1.17;;;33.30;36.60;;;;;;5074205;28;20382;-86
2022/10/15 03:11:15;;;;;;;4.68;1.13;;;33.10;36.80;;;;;;5074362;28;20862;-85
2022/10/15 03:13:42;;;;;;;5.50;1.23;;;33.20;36.30;;;;;;5073975;28;20829;-83
2022/10/15 03:16:11;;;;;;;3.97;1.50;;;32.80;37.10;;;;;;5074237;28;20370;-86
2022/10/15 03:18:38;;;;;;;5.38;1.50;;;32.50;38.90;;;;;;5074030;28;20870;-83
2022/10/15 03:21:05;;;;;;;3.85;1.20;;;32.50;38.90;;;;;;5074724;28;20846;-83
2022/10/15 03:23:32;;;;;;;4.75;2.08;;;33.20;38.60;;;;;;5074389;28;20521;-91
2022/10/15 03:25:59;;;;;;;4.22;1.40;;;33.80;37.60;;;;;;5074208;28;20375;-85
2022/10/15 03:28:26;;;;;;;3.08;1.40;;;33.60;37.50;;;;;;5074737;28;20375;-84
2022/10/15 03:30:53;;;;;;;3.60;1.40;;;33.50;36.80;;;;;;5074061;28;20365;-84
2022/10/15 03:33:20;;;;;;;3.47;1.45;;;33.50;37.60;;;;;;5073960;28;20434;-85
2022/10/15 03:35:47;;;;;;;5.18;1.35;;;33.20;37.00;;;;;;5073771;28;20366;-87
2022/10/15 03:38:14;;;;;;;3.25;1.27;;;33.20;38.30;;;;;;5075451;28;20378;-87
2022/10/15 03:40:43;;;;;;;4.10;1.42;;;33.50;37.60;;;;;;5060094;28;20435;-86
2022/10/15 03:43:10;;;;;;;2.45;1.20;;;34.00;36.80;;;;;;5077488;28;20400;-84
2022/10/15 03:45:37;;;;;;;6.37;1.33;;;33.60;36.50;;;;;;5077811;28;20881;-85
2022/10/15 03:48:04;;;;;;;3.88;1.30;;;33.80;36.90;;;;;;5075098;28;20854;-85
2022/10/15 03:50:31;;;;;;;5.30;1.42;;;33.80;36.80;;;;;;5073367;28;20382;-84
2022/10/15 03:52:58;;;;;;;3.60;1.40;;;33.90;37.20;;;;;;5072959;28;20454;-85
2022/10/15 03:55:25;;;;;;;3.07;1.50;;;34.70;35.20;;;;;;5072598;28;20885;-85
2022/10/15 03:57:52;;;;;;;4.60;1.70;;;34.80;35.50;;;;;;5073012;28;20504;-85
2022/10/15 04:00:19;;;;;;;2.90;1.77;;;33.90;36.60;;;;;;5073014;28;20738;-87
2022/10/15 04:02:46;;;;;;;3.03;1.50;;;33.60;36.90;;;;;;5073106;28;20377;-86
2022/10/15 04:05:13;;;;;;;6.13;3.78;;;33.60;37.10;;;;;;5072816;28;20420;-85
2022/10/15 04:07:41;;;;;;;6.68;3.50;;;33.30;37.30;;;;;;5054560;28;20389;-84
2022/10/15 04:10:08;;;;;;;25.52;21.65;;;33.50;36.60;;;;;;5072862;28;20454;-87
2022/10/15 04:12:35;;;;;;;6.65;3.42;;;34.00;37.30;;;;;;5072638;28;20405;-84
2022/10/15 04:15:03;;;;;;;3.57;1.47;;;34.80;36.10;;;;;;5072803;28;20451;-85
2022/10/15 04:17:30;;;;;;;3.78;1.60;;;35.20;34.50;;;;;;5072952;28;20425;-86
2022/10/15 04:19:57;;;;;;;3.08;1.70;;;34.80;35.80;;;;;;5073138;28;20730;-83
2022/10/15 04:22:24;;;;;;;2.22;1.20;;;35.00;35.50;;;;;;5072616;28;20399;-84
2022/10/15 04:24:51;;;;;;;4.30;1.30;;;34.70;34.90;;;;;;5054445;28;20870;-83
2022/10/15 04:27:18;;;;;;;4.80;1.52;;;33.60;35.70;;;;;;5072962;28;20381;-84
2022/10/15 04:29:48;;;;;;;2.72;1.08;;;33.10;35.80;;;;;;5077378;28;20385;-86
2022/10/15 04:32:15;;;;;;;5.40;1.50;;;33.30;36.50;;;;;;5076424;28;20367;-87
2022/10/15 04:34:44;;;;;;;2.55;1.10;;;33.80;36.50;;;;;;5072310;28;20398;-83
2022/10/15 04:37:11;;;;;;;3.05;1.13;;;34.20;35.50;;;;;;5072435;28;20927;-83
2022/10/15 04:39:38;;;;;;;2.28;1.10;;;34.20;35.50;;;;;;5072251;28;20405;-84
2022/10/15 04:42:05;;;;;;;3.47;1.20;;;34.40;34.70;;;;;;5072661;28;20393;-87
2022/10/15 04:44:32;;;;;;;4.00;1.27;;;34.60;34.90;;;;;;5073873;28;20436;-84
2022/10/15 04:47:00;;;;;;;3.60;1.20;;;34.60;35.60;;;;;;5073932;28;20385;-84
2022/10/15 04:49:29;;;;;;;6.13;1.45;;;34.50;35.00;;;;;;5073102;28;20389;-83
2022/10/15 04:51:56;;;;;;;5.40;1.17;;;34.20;34.90;;;;;;5072862;28;20398;-84
2022/10/15 04:54:23;;;;;;;4.47;1.70;;;34.20;35.70;;;;;;5072891;28;20381;-85
2022/10/15 04:56:50;;;;;;;3.33;1.20;;;34.40;35.50;;;;;;5073388;28;20385;-86
2022/10/15 04:59:17;;;;;;;4.07;1.00;;;34.30;34.40;;;;;;5073225;28;20376;-85
2022/10/15 05:01:44;;;;;;;3.90;1.23;;;33.70;36.00;;;;;;5072366;28;20937;-83
2022/10/15 05:04:11;;;;;;;2.38;1.10;;;33.30;36.50;;;;;;5072240;28;20890;-83
2022/10/15 05:06:38;;;;;;;3.30;1.20;;;33.20;36.40;;;;;;5074903;28;20730;-82
2022/10/15 05:09:06;;;;;;;3.10;1.20;;;33.30;34.90;;;;;;5075611;28;20378;-83
2022/10/15 05:11:39;;;;;;;3.60;1.30;;;33.40;35.90;;;;;;5075801;28;20377;-83
2022/10/15 05:14:06;;;;;;;4.85;1.15;;;33.50;35.30;;;;;;5075624;28;20390;-84
2022/10/15 05:16:34;;;;;;;6.30;1.30;;;33.60;35.90;;;;;;5075536;28;20370;-83
2022/10/15 05:19:05;;;;;;;3.88;1.23;;;33.90;36.50;;;;;;5075866;28;20381;-90
2022/10/15 05:21:34;;;;;;;3.38;1.20;;;34.10;37.00;;;;;;5076046;28;20360;-88
2022/10/15 05:24:04;;;;;;;3.80;1.00;;;34.00;38.10;;;;;;5075950;28;20402;-92
2022/10/15 05:26:32;;;;;;;3.28;1.10;;;33.70;38.70;;;;;;5076535;28;20464;-87
2022/10/15 05:29:00;;;;;;;3.15;1.00;;;33.20;39.30;;;;;;5072913;28;20443;-90
2022/10/15 05:31:28;;;;;;;3.08;1.13;;;32.60;40.30;;;;;;5076732;28;20382;-87
2022/10/15 05:33:56;;;;;;;3.20;1.10;;;32.30;40.60;;;;;;5076138;28;20394;-88
2022/10/15 05:36:24;;;;;;;3.37;1.10;;;31.90;41.50;;;;;;5075959;28;20908;-82
2022/10/15 05:39:01;;;;;;;2.97;1.00;;;31.70;42.30;;;;;;5075716;28;20373;-89
2022/10/15 05:41:30;;;;;;;2.78;1.00;;;31.60;42.60;;;;;;5075359;28;20374;-91
2022/10/15 05:43:58;;;;;;;2.33;1.10;;;31.60;42.30;;;;;;5075733;28;20409;-87
2022/10/15 05:46:26;;;;;;;3.28;0.95;;;31.30;42.70;;;;;;5075866;28;20441;-86
2022/10/15 05:48:58;;;;;;;3.13;1.20;;;31.10;43.10;;;;;;5077244;28;20423;-89
2022/10/15 05:51:27;;;;;;;4.15;1.10;;;31.10;43.30;;;;;;5076745;28;20447;-88
2022/10/15 05:53:55;;;;;;;3.30;1.48;;;31.30;43.40;;;;;;5075825;28;20386;-86
2022/10/15 05:56:23;;;;;;;3.67;1.92;;;31.20;43.90;;;;;;5075694;28;20904;-83
2022/10/15 05:58:51;;;;;;;4.80;1.20;;;30.90;44.20;;;;;;5075620;28;20897;-87
2022/10/15 06:01:18;;;;;;;4.18;1.60;;;30.90;44.50;;;;;;5076025;28;20449;-87
2022/10/15 06:03:45;;;;;;;3.72;1.20;;;30.90;44.50;;;;;;5075047;28;20455;-87
2022/10/15 06:06:15;;;;;;;4.30;1.60;;;30.50;45.10;;;;;;5075639;28;20377;-88
2022/10/15 06:08:42;;;;;;;4.22;2.53;;;30.50;45.50;;;;;;5075927;28;20919;-84
2022/10/15 06:11:09;;;;;;;3.65;1.60;;;30.40;45.90;;;;;;5075045;28;20837;-91
2022/10/15 06:13:41;;;;;;;5.05;2.00;;;30.30;46.10;;;;;;5075150;28;20810;-87
2022/10/15 06:16:08;;;;;;;3.20;1.20;;;30.20;46.10;;;;;;5075757;28;20939;-90
2022/10/15 06:18:37;;;;;;;2.25;1.10;;;30.10;46.40;;;;;;5076347;28;20390;-92
2022/10/15 06:21:05;;;;;;;2.50;0.90;;;30.20;46.10;;;;;;5074841;28;20378;-88
2022/10/15 06:23:33;;;;;;;3.77;1.10;;;30.10;46.50;;;;;;5075035;28;20896;-83
2022/10/15 06:26:05;;;;;;;5.82;1.13;;;30.00;47.50;;;;;;5075320;28;20378;-83
2022/10/15 06:28:32;;;;;;;4.10;1.08;;;30.00;45.80;;;;;;5074801;28;20453;-91
2022/10/15 06:31:00;;;;;;;2.30;0.90;;;29.80;46.30;;;;;;5075409;28;20378;-87
2022/10/15 06:33:27;;;;;;;3.13;0.85;;;29.70;46.60;;;;;;5074625;28;20366;-87
2022/10/15 06:35:54;;;;;;;3.00;0.82;;;29.60;46.30;;;;;;5074936;28;20378;-85
2022/10/15 06:38:23;;;;;;;1.80;0.90;;;29.40;46.70;;;;;;5075117;28;20424;-88
2022/10/15 06:40:50;;;;;;;2.83;0.90;;;29.10;47.00;;;;;;5074528;28;20374;-91
2022/10/15 06:43:17;;;;;;;2.15;0.90;;;28.80;47.30;;;;;;5079051;28;20406;-88
2022/10/15 06:45:44;;;;;;;3.35;0.80;;;28.50;47.70;;;;;;5078591;28;20449;-88
2022/10/15 06:48:11;;;;;;;2.70;1.00;;;28.40;48.10;;;;;;5076731;28;20730;-90
2022/10/15 06:50:39;;;;;;;3.33;1.05;;;28.00;48.80;;;;;;5077864;28;20435;-90
2022/10/15 06:53:07;;;;;;;3.38;0.82;;;27.80;49.70;;;;;;5079711;28;20371;-91
2022/10/15 06:55:35;;;;;;;2.95;1.00;;;27.30;50.90;;;;;;5078900;28;20378;-85
2022/10/15 06:58:02;;;;;;;2.67;1.13;;;27.20;50.70;;;;;;5076236;28;20460;-87
2022/10/15 07:00:29;;;;;;;4.13;1.10;;;27.10;51.30;;;;;;5077905;28;20854;-88
2022/10/15 07:02:56;;;;;;;2.97;1.27;;;27.20;51.30;;;;;;5078402;28;20397;-84
2022/10/15 07:05:23;;;;;;;4.55;1.17;;;27.30;50.70;;;;;;5079254;28;20382;-88
2022/10/15 07:07:57;;;;;;;2.70;0.90;;;27.00;51.10;;;;;;5076511;28;20377;-86
2022/10/15 07:10:26;;;;;;;3.07;0.93;;;26.90;50.80;;;;;;5070079;28;20382;-90
2022/10/15 07:12:54;;;;;;;4.13;1.07;;;26.30;51.70;;;;;;5057186;28;20374;-88
2022/10/15 07:15:21;;;;;;;2.83;0.90;;;25.80;52.60;;;;;;5075074;28;20378;-87
2022/10/15 07:18:00;;;;;;;3.63;0.93;;;25.10;54.30;;;;;;5073886;28;20382;-87
2022/10/15 07:20:29;;;;;;;2.77;0.97;;;24.30;55.50;;;;;;5073805;28;20391;-85
2022/10/15 07:23:00;;;;;;;6.20;1.00;;;23.60;57.30;;;;;;5073790;28;20502;-84
2022/10/15 07:25:27;;;;;;;4.20;0.93;;;23.10;58.70;;;;;;5074837;28;20496;-84
2022/10/15 07:27:56;;;;;;;2.28;0.95;;;22.70;60.70;;;;;;5075290;28;20420;-91
2022/10/15 07:30:27;;;;;;;3.40;0.97;;;22.40;61.00;;;;;;5073569;28;20759;-84
2022/10/15 07:32:56;;;;;;;3.75;1.00;;;22.20;61.80;;;;;;5074944;28;20450;-84
2022/10/15 07:35:27;;;;;;;5.75;1.30;;;22.10;62.40;;;;;;5076527;28;20370;-84
2022/10/15 07:37:54;;;;;;;3.17;0.98;;;22.10;62.90;;;;;;5078757;28;20369;-84
2022/10/15 07:40:22;;;;;;;4.95;1.25;;;22.10;62.90;;;;;;5077664;28;20388;-84
2022/10/15 07:42:56;;;;;;;3.85;1.08;;;22.10;63.10;;;;;;5079050;28;20370;-82
2022/10/15 07:45:24;;;;;;;4.40;1.10;;;22.00;64.40;;;;;;5074941;28;20394;-84
2022/10/15 07:47:51;;;;;;;3.83;1.20;;;21.60;64.30;;;;;;5074700;28;20371;-85
2022/10/15 07:50:19;;;;;;;5.40;1.30;;;21.50;65.40;;;;;;5074059;28;20452;-85
2022/10/15 07:52:47;;;;;;;5.70;1.23;;;21.30;66.30;;;;;;5073895;28;20370;-85
2022/10/15 07:55:14;;;;;;;4.38;1.40;;;21.00;67.10;;;;;;5073274;28;20382;-86
2022/10/15 07:57:41;;;;;;;4.75;1.23;;;20.70;68.10;;;;;;5073267;28;20370;-85
2022/10/15 08:00:08;;;;;;;4.28;1.10;;;20.50;69.40;;;;;;5073555;28;20378;-86
2022/10/15 08:02:35;;;;;;;5.90;1.50;;;20.30;70.60;;;;;;5073674;28;20885;-85
2022/10/15 08:05:02;;;;;;;2.25;1.10;;;20.20;71.20;;;;;;5056039;28;20396;-85
2022/10/15 08:07:29;;;;;;;3.10;1.20;;;20.10;71.70;;;;;;5079582;28;20370;-85
2022/10/15 08:09:56;;;;;;;3.03;1.10;;;20.00;72.70;;;;;;5073283;28;20878;-85
2022/10/15 08:12:23;;;;;;;4.38;1.13;;;19.90;73.50;;;;;;5073004;28;20758;-84
2022/10/15 08:14:50;;;;;;;3.95;1.10;;;19.80;74.80;;;;;;5072853;28;20432;-86
2022/10/15 08:17:17;;;;;;;3.03;1.10;;;19.60;76.00;;;;;;5072851;28;20484;-86
2022/10/15 08:19:44;;;;;;;2.83;1.02;;;19.50;77.80;;;;;;5072701;28;20371;-85
2022/10/15 08:22:11;;;;;;;4.18;1.10;;;19.40;78.80;;;;;;5072897;28;20393;-85
2022/10/15 08:24:38;;;;;;;3.72;1.30;;;19.30;80.60;;;;;;5073031;28;20398;-86
2022/10/15 08:27:05;;;;;;;4.28;1.30;;;19.20;82.00;;;;;;5072623;28;20449;-86
2022/10/15 08:29:32;;;;;;;3.45;1.10;;;19.00;83.90;;;;;;5072805;28;20378;-86
2022/10/15 08:31:59;;;;;;;3.95;1.25;;;18.90;85.30;;;;;;5072503;28;20453;-86
2022/10/15 08:34:26;;;;;;;4.07;1.20;;;18.90;87.20;;;;;;5072357;28;20379;-84
2022/10/15 08:36:53;;;;;;;4.45;1.27;;;18.90;88.90;;;;;;5054179;28;20378;-86
2022/10/15 08:39:20;;;;;;;4.18;1.50;;;18.80;90.10;;;;;;5072358;28;20375;-86
2022/10/15 08:41:49;;;;;;;4.68;1.60;;;18.70;90.90;;;;;;5075358;28;20447;-86
2022/10/15 08:44:21;;;;;;;5.50;1.80;;;18.60;91.70;;;;;;5076263;28;20402;-86
2022/10/15 08:47:12;;;;;;;5.90;1.80;;;18.50;92.80;;;;;;5076754;28;20379;-86
2022/10/15 08:49:50;;;;;;;4.50;1.52;;;18.40;93.70;;;;;;5076150;28;20362;-86
2022/10/15 08:52:45;;;;;;;4.03;1.90;;;18.40;94.80;;;;;;5076590;28;20397;-87
2022/10/15 08:55:14;;;;;;;4.93;1.85;;;18.20;95.70;;;;;;5076918;28;20427;-86
2022/10/15 08:57:44;;;;;;;4.28;1.60;;;18.20;96.70;;;;;;5076336;28;20449;-87
2022/10/15 09:00:20;;;;;;;5.70;1.95;;;18.10;97.20;;;;;;5077834;28;20462;-87
2022/10/15 09:03:02;;;;;;;6.03;1.80;;;18.00;97.50;;;;;;5076294;28;20419;-87
2022/10/15 09:05:46;;;;;;;4.55;1.98;;;18.00;98.30;;;;;;5076710;28;20379;-87
2022/10/15 09:08:19;;;;;;;5.78;2.10;;;17.90;98.40;;;;;;5076435;28;20704;-87
2022/10/15 09:10:58;;;;;;;4.72;1.80;;;17.80;99.20;;;;;;5076506;28;20390;-87
2022/10/15 09:13:34;;;;;;;4.72;2.00;;;17.80;99.40;;;;;;5075902;28;20389;-87
2022/10/15 09:16:16;;;;;;;6.00;2.10;;;17.70;99.60;;;;;;5078637;28;20843;-86
2022/10/15 09:18:48;;;;;;;5.30;1.92;;;17.70;99.90;;;;;;5076835;28;20370;-87
2022/10/15 09:21:16;;;;;;;4.75;1.70;;;17.60;99.90;;;;;;5076793;28;20362;-86
2022/10/15 09:23:44;;;;;;;6.05;1.75;;;17.50;99.90;;;;;;5076772;28;20402;-87
2022/10/15 09:26:41;;;;;;;4.10;1.50;;;17.40;99.90;;;;;;5077885;28;20374;-86
2022/10/15 09:30:03;;;;;;;5.57;1.50;;;17.40;99.90;;;;;;5015256;28;20458;-86
2022/10/15 09:32:45;;;;;;;4.15;1.38;;;17.30;99.90;;;;;;4956666;29;20384;-87
2022/10/15 09:35:33;;;;;;;4.72;1.65;;;17.20;99.90;;;;;;4956137;29;20499;-87
2022/10/15 09:38:06;;;;;;;4.05;1.20;;;17.20;99.90;;;;;;4956672;29;20892;-87
2022/10/15 09:40:57;;;;;;;8.02;1.60;;;17.10;99.90;;;;;;4956460;29;20439;-87
2022/10/15 09:43:34;;;;;;;3.77;1.37;;;17.10;99.90;;;;;;4955622;29;20483;-86
2022/10/15 09:46:02;;;;;;;4.95;1.50;;;16.90;99.90;;;;;;4957094;29;20416;-86
2022/10/15 09:48:35;;;;;;;4.20;1.40;;;16.90;99.90;;;;;;4956483;29;20432;-86
2022/10/15 09:51:30;;;;;;;4.65;1.42;;;17.00;99.90;;;;;;4957052;29;20904;-88
2022/10/15 09:54:21;;;;;;;5.10;1.47;;;17.00;99.90;;;;;;4956506;29;21074;-88
2022/10/15 09:56:55;;;;;;;5.22;1.55;;;17.10;99.90;;;;;;4956931;29;20399;-84
2022/10/15 09:59:24;;;;;;;4.07;1.40;;;17.20;99.90;;;;;;4956375;29;20388;-86
2022/10/15 10:02:20;;;;;;;5.37;1.37;;;17.20;99.90;;;;;;4955894;29;20430;-86
2022/10/15 10:04:48;;;;;;;4.80;1.40;;;17.20;99.90;;;;;;4952645;29;20523;-88
2022/10/15 10:07:31;;;;;;;4.75;1.25;;;17.10;99.90;;;;;;4974382;28;20394;-87
2022/10/15 10:10:06;;;;;;;4.63;1.42;;;17.10;99.90;;;;;;5071828;28;20434;-87
2022/10/15 10:12:35;;;;;;;3.85;1.20;;;17.10;99.90;;;;;;5076419;28;20371;-85
2022/10/15 10:15:21;;;;;;;3.97;1.40;;;17.00;99.90;;;;;;5056200;28;20898;-87
2022/10/15 10:17:56;;;;;;;2.63;1.10;;;16.90;99.90;;;;;;5057023;28;20379;-87
2022/10/15 10:20:27;;;;;;;4.63;1.20;;;16.70;99.90;;;;;;5057452;28;20419;-86
2022/10/15 10:23:01;;;;;;;5.88;1.30;;;16.70;99.90;;;;;;5061022;28;20477;-86
2022/10/15 10:25:28;;;;;;;4.63;2.17;;;16.60;99.90;;;;;;5060350;28;20387;-87
2022/10/15 10:27:58;;;;;;;7.15;2.40;;;16.60;99.90;;;;;;5060163;28;20372;-87
2022/10/15 10:30:26;;;;;;;5.80;2.05;;;16.50;99.90;;;;;;5058577;28;20391;-86
2022/10/15 10:33:00;;;;;;;5.30;1.52;;;16.50;99.90;;;;;;5057042;28;20395;-86
2022/10/15 10:35:50;;;;;;;6.43;1.48;;;16.50;99.90;;;;;;5055981;28;20383;-87
2022/10/15 10:38:24;;;;;;;4.10;1.47;;;16.50;99.90;;;;;;5056794;28;20451;-87
2022/10/15 10:40:54;;;;;;;3.60;1.48;;;16.50;99.90;;;;;;5056972;28;20903;-87
2022/10/15 10:43:28;;;;;;;4.97;1.60;;;16.50;99.90;;;;;;5056710;28;20410;-86
2022/10/15 10:45:55;;;;;;;6.90;1.80;;;16.70;99.90;;;;;;5055966;28;20374;-87
2022/10/15 10:48:44;;;;;;;6.13;1.90;;;16.80;99.90;;;;;;5055975;28;20463;-88
2022/10/15 10:51:14;;;;;;;7.85;1.80;;;16.90;99.90;;;;;;5056409;28;20360;-86
2022/10/15 10:53:59;;;;;;;6.22;1.70;;;17.00;99.90;;;;;;5056361;28;20380;-86
2022/10/15 10:56:47;;;;;;;4.60;1.60;;;17.10;99.90;;;;;;5055960;28;20368;-87
2022/10/15 10:59:22;;;;;;;7.55;1.60;;;17.20;99.90;;;;;;5055635;28;20394;-85
2022/10/15 11:01:51;;;;;;;5.60;1.73;;;17.30;99.90;;;;;;5055871;28;20364;-85
2022/10/15 11:04:35;;;;;;;8.80;1.70;;;17.20;99.90;;;;;;5056003;28;20465;-84
2022/10/15 11:07:33;;;;;;;5.85;1.80;;;17.20;99.90;;;;;;5056412;28;20368;-83
2022/10/15 11:10:44;;;;;;;5.32;1.80;;;17.30;99.90;;;;;;5051321;28;20375;-86
2022/10/15 11:13:32;;;;;;;8.17;1.90;;;17.20;99.90;;;;;;5055721;28;20382;-84
2022/10/15 11:16:20;;;;;;;7.80;2.03;;;17.20;99.90;;;;;;5055581;28;20881;-85
2022/10/15 11:18:50;;;;;;;5.53;1.95;;;17.20;99.90;;;;;;5073660;28;20350;-85
2022/10/15 11:21:51;;;;;;;8.57;1.90;;;17.20;99.90;;;;;;5073640;28;20395;-84
2022/10/15 11:25:07;;;;;;;6.93;1.90;;;17.20;99.90;;;;;;5073948;28;20874;-85
2022/10/15 11:27:52;;;;;;;6.53;1.83;;;17.20;99.90;;;;;;4992451;28;20390;-84
2022/10/15 11:30:55;;;;;;;6.22;1.80;;;17.10;99.90;;;;;;4992885;28;20476;-85
2022/10/15 11:33:34;;;;;;;5.35;1.90;;;17.00;99.90;;;;;;4992712;28;20845;-84
2022/10/15 11:36:28;;;;;;;7.95;2.00;;;17.00;99.90;;;;;;4992089;28;20373;-84
2022/10/15 11:39:39;;;;;;;7.13;2.58;;;16.90;99.90;;;;;;4992035;28;20395;-84
2022/10/15 11:42:39;;;;;;;8.65;2.08;;;16.70;99.90;;;;;;4992102;28;20383;-84
2022/10/15 11:45:18;;;;;;;7.40;2.00;;;16.80;99.90;;;;;;4989535;28;20458;-84
2022/10/15 11:47:56;;;;;;;5.50;2.00;;;16.80;99.90;;;;;;4991936;28;20826;-84
2022/10/15 11:50:36;;;;;;;5.15;2.20;;;16.80;99.90;;;;;;4992221;28;20372;-84
2022/10/15 11:53:48;;;;;;;6.00;1.92;;;16.90;99.90;;;;;;4994172;28;20385;-85
2022/10/15 11:56:25;;;;;;;5.63;2.00;;;16.90;99.90;;;;;;4996461;28;20393;-86
2022/10/15 11:59:12;;;;;;;6.22;2.17;;;16.90;99.90;;;;;;4997061;28;20377;-84
2022/10/15 12:01:54;;;;;;;7.38;2.60;;;16.90;99.90;;;;;;4995103;28;20412;-85
2022/10/15 12:04:30;;;;;;;6.88;2.80;;;16.90;99.90;;;;;;5058541;28;20463;-85
2022/10/15 12:07:00;;;;;;;7.38;2.67;;;16.90;99.90;;;;;;5076636;28;20453;-84
2022/10/15 12:09:41;;;;;;;5.83;2.53;;;16.90;99.90;;;;;;5075360;28;20366;-84
2022/10/15 12:12:29;;;;;;;4.85;2.10;;;16.90;99.90;;;;;;5077901;28;20389;-85
2022/10/15 12:15:16;;;;;;;6.82;2.28;;;16.90;99.90;;;;;;5074840;28;20402;-84
2022/10/15 12:18:02;;;;;;;7.70;2.30;;;16.90;99.90;;;;;;5077285;28;20402;-85
2022/10/15 12:20:30;;;;;;;6.28;2.10;;;17.00;99.90;;;;;;5076970;28;20967;-85
2022/10/15 12:23:00;;;;;;;7.43;2.40;;;17.00;99.90;;;;;;5073502;28;20374;-85
2022/10/15 12:25:45;;;;;;;8.40;2.50;;;17.10;99.90;;;;;;5073604;28;20378;-84
2022/10/15 12:28:31;;;;;;;6.18;2.20;;;17.10;99.90;;;;;;5073882;28;20437;-84
2022/10/15 12:31:02;;;;;;;6.03;2.10;;;17.20;99.90;;;;;;5074116;28;20401;-84
2022/10/15 12:33:36;;;;;;;7.45;2.20;;;17.20;99.90;;;;;;5074478;28;20374;-84
2022/10/15 12:36:27;;;;;;;6.43;2.03;;;17.20;99.90;;;;;;5073616;28;20958;-85
2022/10/15 12:39:35;;;;;;;6.15;1.92;;;17.30;99.90;;;;;;5074379;28;20378;-86
2022/10/15 12:42:02;;;;;;;7.32;1.90;;;17.30;99.90;;;;;;5032194;28;20381;-83
2022/10/15 12:44:34;;;;;;;7.18;1.80;;;17.30;99.90;;;;;;5031686;28;20436;-85
2022/10/15 12:47:02;;;;;;;5.50;1.80;;;17.30;99.90;;;;;;5014759;28;20382;-85
2022/10/15 12:49:29;;;;;;;6.90;2.00;;;17.30;99.90;;;;;;5031259;28;20396;-85
2022/10/15 12:51:58;;;;;;;4.23;1.90;;;17.30;99.90;;;;;;5030982;28;20369;-85
2022/10/15 12:54:40;;;;;;;6.90;1.70;;;17.30;99.90;;;;;;5030891;28;20386;-85
2022/10/15 12:57:32;;;;;;;6.55;2.20;;;17.30;99.90;;;;;;5030965;28;20391;-85
2022/10/15 13:00:01;;;;;;;5.28;1.70;;;17.30;99.90;;;;;;5031439;28;20378;-84
2022/10/15 13:02:48;;;;;;;5.43;1.85;;;17.30;99.90;;;;;;5031382;28;20417;-84
2022/10/15 13:05:30;;;;;;;6.63;1.90;;;17.30;99.90;;;;;;5031869;28;20758;-85
2022/10/15 13:08:03;;;;;;;6.97;2.00;;;17.30;99.90;;;;;;5033442;28;20378;-85
2022/10/15 13:10:53;;;;;;;8.90;2.88;;;17.30;99.90;;;;;;5033464;28;20893;-85
2022/10/15 13:13:34;;;;;;;10.20;3.20;;;17.30;99.90;;;;;;5034018;28;20841;-83
2022/10/15 13:16:08;;;;;;;6.95;2.70;;;17.30;99.90;;;;;;5051525;28;20362;-85
2022/10/15 13:18:35;;;;;;;5.45;2.60;;;17.40;99.90;;;;;;5076041;28;20434;-85